createdAt,value
2023-02-24T00:00:39.880Z,95.40
2023-02-24T00:03:49.609Z,90.90
2023-02-24T00:06:51.646Z,101.00
2023-02-24T00:12:54.628Z,95.70
2023-02-24T00:16:03.025Z,104.40
2023-02-24T00:19:05.623Z,105.90
2023-02-24T00:22:08.420Z,106.30
2023-02-24T00:25:10.037Z,109.70
2023-02-24T00:28:11.622Z,108.60
2023-02-24T00:34:15.984Z,104.60
2023-02-24T00:40:19.305Z,106.20
2023-02-24T00:43:20.864Z,100.90
2023-02-24T00:49:25.219Z,108.90
2023-02-24T00:52:27.016Z,107.90
2023-02-24T00:55:28.694Z,114.00
2023-02-24T01:01:33.530Z,109.60
2023-02-24T01:04:35.593Z,107.70
2023-02-24T01:07:37.872Z,115.30
2023-02-24T01:13:41.354Z,105.10
2023-02-24T01:19:46.761Z,111.30
2023-02-24T01:22:52.216Z,104.70
2023-02-24T01:25:53.887Z,109.40
2023-02-24T01:38:01.102Z,100.90
2023-02-24T01:44:29.992Z,102.40
2023-02-24T01:47:31.619Z,103.80
2023-02-24T01:50:34.848Z,108.10
2023-02-24T01:53:36.684Z,106.30
2023-02-24T01:56:39.008Z,103.30
2023-02-24T01:59:40.614Z,102.10
2023-02-24T02:02:46.752Z,98.70
2023-02-24T02:05:50.028Z,103.20
2023-02-24T02:08:52.225Z,95.70
2023-02-24T02:11:53.949Z,85.00
2023-02-24T02:18:03.661Z,79.70
2023-02-24T02:21:08.421Z,90.20
2023-02-24T02:24:20.413Z,77.60
2023-02-24T02:30:59.677Z,50.40
2023-02-24T02:34:24.517Z,47.50
2023-02-24T02:37:34.677Z,47.80
2023-02-24T02:40:42.900Z,42.50
2023-02-24T02:44:05.203Z,40.20
2023-02-24T02:47:14.649Z,43.80
2023-02-24T02:50:35.753Z,40.10
2023-02-24T02:53:48.477Z,43.50
2023-02-24T02:56:56.847Z,41.70
2023-02-24T03:00:20.052Z,42.20
2023-02-24T03:03:22.064Z,42.10
2023-02-24T03:06:29.550Z,42.10
2023-02-24T03:09:35.690Z,41.10
2023-02-24T03:12:40.017Z,42.40
2023-02-24T03:15:41.758Z,40.90
2023-02-24T03:18:57.997Z,45.70
2023-02-24T03:22:21.569Z,47.90
2023-02-24T03:25:26.283Z,45.20
2023-02-24T03:28:32.814Z,47.70
2023-02-24T03:31:37.216Z,48.80
2023-02-24T03:34:56.848Z,44.20
2023-02-24T03:37:59.248Z,43.10
2023-02-24T03:41:00.807Z,45.90
2023-02-24T03:47:04.459Z,42.70
2023-02-24T03:50:17.885Z,40.10
2023-02-24T03:53:38.807Z,43.80
2023-02-24T03:56:50.260Z,45.50
2023-02-24T04:00:14.833Z,46.30
2023-02-24T04:03:35.150Z,43.40
2023-02-24T04:06:43.987Z,42.20
2023-02-24T04:10:07.647Z,42.50
2023-02-24T04:13:25.664Z,44.10
2023-02-24T04:16:30.932Z,45.30
2023-02-24T04:19:36.416Z,45.50
2023-02-24T04:22:39.222Z,51.90
2023-02-24T04:25:43.196Z,46.30
2023-02-24T04:28:45.655Z,49.20
2023-02-24T04:31:51.175Z,43.60
2023-02-24T04:34:53.163Z,46.70
2023-02-24T04:37:55.244Z,42.90
2023-02-24T04:40:56.929Z,46.30
2023-02-24T04:43:58.664Z,48.10
2023-02-24T04:50:02.483Z,47.70
2023-02-24T04:53:07.426Z,47.10
2023-02-24T04:56:09.343Z,46.00
2023-02-24T04:59:11.821Z,45.00
2023-02-24T05:02:13.445Z,45.20
2023-02-24T05:08:17.882Z,43.60
2023-02-24T05:11:20.043Z,47.20
2023-02-24T05:14:21.891Z,47.90
2023-02-24T05:20:25.318Z,45.70
2023-02-24T05:23:38.366Z,41.50
2023-02-24T05:26:40.152Z,46.40
2023-02-24T05:29:41.726Z,42.90
2023-02-24T05:35:45.061Z,42.80
2023-02-24T05:41:49.883Z,43.50
2023-02-24T05:44:51.509Z,40.40
2023-02-24T05:50:54.684Z,39.10
2023-02-24T05:57:04.393Z,36.30
2023-02-24T06:00:06.712Z,36.40
2023-02-24T06:03:08.497Z,30.50
2023-02-24T06:06:10.360Z,29.60
2023-02-24T06:15:15.633Z,24.80
2023-02-24T06:18:17.187Z,26.00
2023-02-24T06:21:19.391Z,25.50
2023-02-24T06:24:21.195Z,29.00
2023-02-24T06:30:25.798Z,23.00
2023-02-24T06:33:27.314Z,25.10
2023-02-24T06:36:28.865Z,23.20
2023-02-24T06:45:33.993Z,27.10
2023-02-24T06:51:37.158Z,24.60
2023-02-24T06:57:40.595Z,24.00
2023-02-24T07:03:43.957Z,24.90
2023-02-24T07:06:48.338Z,24.10
2023-02-24T07:09:49.862Z,22.30
2023-02-24T07:15:53.112Z,21.20
2023-02-24T07:21:58.376Z,22.10
2023-02-24T07:24:59.949Z,20.90
2023-02-24T07:31:06.267Z,24.10
2023-02-24T07:34:08.161Z,22.00
2023-02-24T07:37:11.694Z,21.30
2023-02-24T07:40:13.892Z,21.30
2023-02-24T07:43:16.704Z,21.80
2023-02-24T07:46:23.381Z,21.60
2023-02-24T07:49:25.691Z,21.00
2023-02-24T07:52:30.364Z,23.80
2023-02-24T07:58:35.906Z,22.50
2023-02-24T08:01:37.997Z,23.40
2023-02-24T08:04:39.745Z,23.20
2023-02-24T08:07:41.430Z,22.10
2023-02-24T08:10:43.168Z,24.60
2023-02-24T08:13:45.053Z,24.60
2023-02-24T08:16:49.227Z,26.20
2023-02-24T08:19:51.929Z,27.10
2023-02-24T08:22:54.514Z,24.90
2023-02-24T08:25:56.114Z,25.00
2023-02-24T08:28:58.413Z,25.90
2023-02-24T08:32:00.355Z,25.60
2023-02-24T08:35:05.130Z,25.00
2023-02-24T08:38:15.087Z,26.20
2023-02-24T08:41:18.839Z,31.10
2023-02-24T08:44:20.579Z,27.60
2023-02-24T08:47:22.319Z,26.20
2023-02-24T08:50:24.144Z,26.20
2023-02-24T08:53:25.748Z,25.60
2023-02-24T08:56:32.432Z,24.60
2023-02-24T08:59:36.610Z,25.20
2023-02-24T09:02:38.191Z,24.60
2023-02-24T09:05:40.084Z,25.70
2023-02-24T09:08:43.010Z,23.20
2023-02-24T09:11:46.945Z,25.90
2023-02-24T09:14:49.632Z,23.90
2023-02-24T09:17:51.986Z,24.40
2023-02-24T09:23:55.010Z,27.00
2023-02-24T09:26:57.104Z,24.60
2023-02-24T09:29:58.937Z,28.20
2023-02-24T09:33:00.668Z,25.80
2023-02-24T09:36:05.667Z,28.40
2023-02-24T09:39:08.390Z,24.80
2023-02-24T09:42:12.119Z,23.00
2023-02-24T09:45:20.773Z,23.80
2023-02-24T09:48:37.478Z,21.90
2023-02-24T09:51:39.100Z,24.90
2023-02-24T09:54:40.876Z,23.50
2023-02-24T09:58:07.477Z,23.70
2023-02-24T10:01:15.338Z,24.20
2023-02-24T10:04:43.996Z,25.30
2023-02-24T10:07:46.497Z,24.30
2023-02-24T10:10:48.355Z,25.30
2023-02-24T10:13:53.794Z,24.50
2023-02-24T10:16:56.613Z,26.70
2023-02-24T10:20:11.626Z,25.70
2023-02-24T10:23:20.148Z,24.40
2023-02-24T10:27:07.921Z,25.50
2023-02-24T10:30:30.806Z,27.20
2023-02-24T10:33:38.690Z,28.00
2023-02-24T10:36:40.412Z,29.10
2023-02-24T10:39:42.155Z,27.60
2023-02-24T10:42:43.950Z,25.90
2023-02-24T10:45:47.469Z,25.40
2023-02-24T10:48:57.500Z,28.30
2023-02-24T10:51:59.219Z,26.80
2023-02-24T10:55:00.775Z,25.90
2023-02-24T10:58:03.199Z,27.50
2023-02-24T11:01:16.061Z,28.20
2023-02-24T11:04:18.775Z,30.60
2023-02-24T11:07:20.971Z,29.70
2023-02-24T11:10:24.301Z,26.10
2023-02-24T11:13:26.537Z,31.00
2023-02-24T11:16:28.184Z,29.20
2023-02-24T11:19:31.551Z,31.60
2023-02-24T11:22:40.078Z,29.20
2023-02-24T11:25:46.217Z,31.50
2023-02-24T11:29:03.899Z,30.30
2023-02-24T11:32:27.735Z,29.50
2023-02-24T11:35:33.599Z,29.20
2023-02-24T11:39:21.757Z,29.10
2023-02-24T11:42:46.248Z,28.60
2023-02-24T11:45:54.663Z,29.30
2023-02-24T11:48:58.617Z,28.60
2023-02-24T11:52:01.303Z,26.10
2023-02-24T11:55:05.464Z,26.70
2023-02-24T11:58:17.138Z,28.50
2023-02-24T12:01:28.029Z,27.90
2023-02-24T12:04:36.724Z,28.60
2023-02-24T12:07:42.730Z,27.60
2023-02-24T12:10:49.926Z,26.60
2023-02-24T12:14:04.625Z,27.50
2023-02-24T12:17:33.968Z,27.60
2023-02-24T12:20:51.396Z,27.30
2023-02-24T12:23:53.011Z,25.10
2023-02-24T12:27:19.513Z,26.70
2023-02-24T12:30:21.127Z,31.30
2023-02-24T12:33:35.713Z,28.60
2023-02-24T12:36:53.844Z,29.60
2023-02-24T12:40:01.446Z,28.60
2023-02-24T12:43:36.134Z,31.50
2023-02-24T12:46:38.969Z,32.80
2023-02-24T12:49:59.413Z,32.40
2023-02-24T12:53:19.592Z,30.40
2023-02-24T12:56:25.250Z,34.30
2023-02-24T12:59:32.246Z,32.20
2023-02-24T13:02:44.926Z,30.20
2023-02-24T13:05:52.750Z,30.00
2023-02-24T13:09:15.564Z,28.80
2023-02-24T13:12:38.950Z,30.50
2023-02-24T13:15:50.455Z,32.20
2023-02-24T13:18:52.127Z,30.90
2023-02-24T13:22:17.021Z,32.60
2023-02-24T13:25:21.591Z,29.40
2023-02-24T13:28:34.027Z,32.00
2023-02-24T13:31:44.573Z,34.10
2023-02-24T13:34:46.612Z,30.10
2023-02-24T13:37:48.607Z,28.80
2023-02-24T13:40:50.276Z,30.20
2023-02-24T13:44:00.361Z,30.40
2023-02-24T13:47:13.333Z,29.50
2023-02-24T13:50:24.042Z,29.80
2023-02-24T13:54:12.416Z,31.90
2023-02-24T13:57:35.687Z,29.40
2023-02-24T14:01:02.753Z,29.90
2023-02-24T14:04:39.263Z,29.00
2023-02-24T14:07:40.900Z,28.30
2023-02-24T14:10:44.650Z,28.20
2023-02-24T14:13:50.166Z,33.40
2023-02-24T14:16:51.940Z,30.60
2023-02-24T14:19:53.640Z,31.10
2023-02-24T14:22:57.745Z,32.80
2023-02-24T14:26:00.202Z,30.60
2023-02-24T14:29:02.317Z,32.30
2023-02-24T14:32:04.002Z,31.80
2023-02-24T14:35:06.027Z,35.50
2023-02-24T14:38:37.582Z,31.10
2023-02-24T14:41:39.299Z,30.10
2023-02-24T14:44:50.097Z,26.20
2023-02-24T14:47:53.268Z,28.70
2023-02-24T14:51:04.632Z,25.30
2023-02-24T14:54:08.110Z,25.70
2023-02-24T14:57:17.605Z,28.50
2023-02-24T15:00:25.387Z,35.70
2023-02-24T15:03:29.709Z,28.10
2023-02-24T15:06:33.297Z,28.00
2023-02-24T15:09:42.394Z,26.50
2023-02-24T15:12:46.832Z,28.70
2023-02-24T15:15:48.428Z,25.90
2023-02-24T15:18:55.287Z,25.50
2023-02-24T15:21:56.991Z,27.50
2023-02-24T15:25:24.065Z,28.00
2023-02-24T15:28:37.416Z,28.30
2023-02-24T15:31:39.401Z,27.80
2023-02-24T15:34:44.675Z,29.60
2023-02-24T15:37:46.269Z,30.10
2023-02-24T15:40:53.595Z,32.20
2023-02-24T15:43:55.461Z,34.50
2023-02-24T15:46:58.729Z,33.30
2023-02-24T15:50:00.412Z,31.10
2023-02-24T15:53:04.359Z,34.80
2023-02-24T15:56:06.057Z,36.00
2023-02-24T15:59:07.992Z,32.90
2023-02-24T16:02:14.785Z,36.90
2023-02-24T16:05:16.570Z,36.30
2023-02-24T16:08:19.600Z,38.70
2023-02-24T16:11:25.582Z,35.30
2023-02-24T16:14:27.239Z,31.50
2023-02-24T16:17:41.748Z,29.80
2023-02-24T16:20:43.803Z,37.60
2023-02-24T16:23:45.528Z,38.80
2023-02-24T16:26:47.109Z,40.60
2023-02-24T16:29:49.824Z,45.80
2023-02-24T16:32:51.718Z,41.40
2023-02-24T16:35:53.709Z,47.90
2023-02-24T16:38:55.247Z,40.60
2023-02-24T16:44:58.285Z,45.10
2023-02-24T16:48:02.514Z,46.00
2023-02-24T16:51:06.220Z,63.50
2023-02-24T16:54:07.836Z,56.70
2023-02-24T16:57:09.983Z,51.80
2023-02-24T17:00:13.963Z,55.60
2023-02-24T17:03:41.766Z,42.40
2023-02-24T17:06:43.314Z,44.80
2023-02-24T17:09:44.895Z,39.90
2023-02-24T17:15:50.666Z,50.50
2023-02-24T17:18:52.228Z,45.50
2023-02-24T17:24:55.503Z,39.80
2023-02-24T17:27:57.856Z,38.10
2023-02-24T17:30:59.555Z,36.60
2023-02-24T17:34:01.262Z,37.80
2023-02-24T17:40:06.552Z,35.70
2023-02-24T17:43:08.584Z,40.70
2023-02-24T17:49:11.765Z,51.90
2023-02-24T17:55:15.300Z,68.90
2023-02-24T17:58:16.964Z,114.50
2023-02-24T18:04:20.047Z,94.70
2023-02-24T18:10:23.129Z,108.70
2023-02-24T18:13:25.819Z,72.30
2023-02-24T18:16:28.143Z,48.60
2023-02-24T18:19:29.956Z,50.40
2023-02-24T18:22:31.605Z,47.30
2023-02-24T18:28:35.489Z,49.20
2023-02-24T18:31:37.197Z,50.30
2023-02-24T18:34:39.184Z,40.50
2023-02-24T18:37:40.755Z,39.10
2023-02-24T18:43:47.281Z,40.90
2023-02-24T18:46:48.949Z,39.10
2023-02-24T18:49:50.613Z,39.30
2023-02-24T18:56:05.179Z,40.20
2023-02-24T18:59:06.820Z,33.30
2023-02-24T19:05:11.238Z,35.00
2023-02-24T19:08:12.870Z,36.60
2023-02-24T19:11:16.899Z,33.30
2023-02-24T19:14:19.262Z,40.60
2023-02-24T19:17:21.065Z,43.50
2023-02-24T19:20:22.596Z,43.80
2023-02-24T19:23:24.318Z,39.30
2023-02-24T19:26:28.026Z,42.20
2023-02-24T19:29:29.680Z,42.70
2023-02-24T19:35:34.063Z,44.60
2023-02-24T19:38:36.107Z,44.50
2023-02-24T19:41:37.631Z,40.30
2023-02-24T19:44:39.150Z,41.20
2023-02-24T19:47:41.183Z,35.60
2023-02-24T19:53:44.995Z,37.70
2023-02-24T19:56:46.624Z,38.30
2023-02-24T19:59:50.235Z,37.40
2023-02-24T20:02:52.382Z,45.90
2023-02-24T20:05:54.117Z,40.10
2023-02-24T20:08:56.386Z,42.70
2023-02-24T20:11:57.993Z,46.50
2023-02-24T20:18:01.087Z,40.80
2023-02-24T20:21:02.865Z,38.90
2023-02-24T20:27:07.290Z,36.80
2023-02-24T20:33:11.013Z,39.40
2023-02-24T20:39:16.580Z,40.40
2023-02-24T20:42:18.201Z,37.70
2023-02-24T20:48:21.299Z,40.50
2023-02-24T20:57:27.971Z,35.90
2023-02-24T21:00:29.557Z,32.80
2023-02-24T21:06:32.680Z,31.80
2023-02-24T21:12:35.930Z,31.00
2023-02-24T21:18:40.767Z,31.60
2023-02-24T21:21:42.320Z,34.70
2023-02-24T21:24:44.074Z,33.50
2023-02-24T21:27:45.983Z,31.60
2023-02-24T21:30:47.903Z,33.30
2023-02-24T21:33:51.266Z,32.40
2023-02-24T21:36:52.839Z,29.80
2023-02-24T21:39:54.378Z,29.90
2023-02-24T21:42:56.012Z,31.00
2023-02-24T21:49:02.434Z,32.20
2023-02-24T21:55:07.220Z,31.10
2023-02-24T21:58:08.835Z,30.30
2023-02-24T22:04:15.810Z,29.60
2023-02-24T22:07:17.402Z,32.60
2023-02-24T22:10:21.681Z,27.60
2023-02-24T22:13:23.191Z,27.60
2023-02-24T22:16:25.622Z,24.20
2023-02-24T22:19:27.757Z,23.20
2023-02-24T22:22:29.492Z,27.40
2023-02-24T22:25:31.023Z,23.00
2023-02-24T22:31:38.267Z,18.70
2023-02-24T22:34:39.873Z,21.20
2023-02-24T22:40:42.930Z,21.50
2023-02-24T22:43:44.725Z,18.80
2023-02-24T22:46:46.960Z,20.70
2023-02-24T22:49:48.629Z,19.90
2023-02-24T22:55:52.313Z,25.70
2023-02-24T22:58:53.917Z,22.90
2023-02-24T23:04:57.036Z,26.30
2023-02-24T23:11:09.445Z,30.40
2023-02-24T23:14:12.981Z,28.00
2023-02-24T23:17:14.736Z,28.70
2023-02-24T23:20:16.984Z,24.60
2023-02-24T23:23:18.532Z,26.50
2023-02-24T23:29:23.561Z,24.80
2023-02-24T23:32:25.292Z,27.20
2023-02-24T23:35:27.021Z,27.90
2023-02-24T23:41:30.151Z,24.90
2023-02-24T23:47:33.365Z,29.90
2023-02-24T23:50:38.855Z,30.50
2023-02-24T23:53:42.482Z,31.00
2023-02-24T23:56:44.146Z,29.80
2023-02-24T23:59:45.848Z,29.40
